NOAA Web Site Link Tides and Currents Home Page Transparent placeholder image

PORTS® Data Listing: 8573927 Chesapeake City, MD

CO-OPS RAW PORTS DATA

************************      PRELIMINARY DATA      ************************** 

     THIS RAW DATA HAS NOT BEEN SUBJECT TO THE NATIONAL OCEAN SERVICE'S        
     QUALITY CONTROL OR QUALITY ASSURANCE PROCEDURES AND DOES NOT MEET         
     THE CRITERIA AND STANDARDS OF OFFICIAL NATIONAL OCEAN SERVICE             
     DATA.  IT IS RELEASED FOR LIMITED PUBLIC USE AS PRELIMINARY DATA TO       
     BE USED ONLY WITH APPROPRIATE CAUTION.                                    

************************      PRELIMINARY DATA      ************************** 


       CD   -   Calendar date
       T    -   Time
       TZ   -   Timezone
       PW   -   Predicted water level (feet above MLLW)
       OW   -   Observed water level (feet above MLLW)
       WS   -   Wind speed (knots)
       WD   -   Wind direction (degrees true)
       WG   -   Wind gust (knots)
       AT   -   Air temperature (degrees farenheit)
       WT   -   Water temperature (degrees farenheit)
       AP   -   Air pressure (millibars)
       SA   -   Salinty (PSU - Practical Salinity Units)
       SG   -   Specific gravity
       RH   -   Relative humidity
       AG   -   Air gap (feet)
       VI   -   Visibility (nautical miles)

       ** NOTE **
       A variable that has its data fields filled with "9"s, indicates that
       data was not collected for that sample period.
       **********


STATION NAME: Chesapeake City (8573927)
****************************************************************************************************
    CD       T    TZ    PW     OW    WS   WD   WG    AT    WT    AP    SA    SG     RH    AG   VI
****************************************************************************************************
2019/03/26 02:30 EDT    2.77   2.78    5   25    8  41.2  47.5 1019.7  0.1  1.001 -99.9 -99.99 -9.99
2019/03/26 02:36 EDT    2.80   2.80    4   23    7  41.2  47.5 1019.7  0.1  1.001 -99.9 -99.99 -9.99
2019/03/26 02:42 EDT    2.83   2.84    5   29    8  41.4  47.5 1019.6  0.1  1.001 -99.9 -99.99 -9.99
2019/03/26 02:48 EDT    2.86   2.85    5   32    9  41.5  47.5 1019.6  0.1  1.001 -99.9 -99.99 -9.99
2019/03/26 02:54 EDT    2.88   2.87    7   21   11  41.7  47.5 1019.6  0.1  1.001 -99.9 -99.99 -9.99
2019/03/26 03:00 EDT    2.90   2.89    5   42   13  41.7  47.3 1019.7  0.1  1.001 -99.9 -99.99 -9.99
2019/03/26 03:06 EDT    2.91   2.89    5   29   13  41.7  47.1 1019.8  0.1  1.001 -99.9 -99.99 -9.99
2019/03/26 03:12 EDT    2.92   2.91    7   30   11  41.9  47.1 1019.8  0.1  1.001 -99.9 -99.99 -9.99
2019/03/26 03:18 EDT    2.93   2.90    6   22   11  41.7  47.1 1019.7  0.1  1.001 -99.9 -99.99 -9.99
2019/03/26 03:24 EDT    2.93   2.90    5   21   12  41.7  47.1 1019.8  0.1  1.001 -99.9 -99.99 -9.99
2019/03/26 03:30 EDT    2.93   2.90    9   23   12  41.5  47.3 1019.8  0.1  1.001 -99.9 -99.99 -9.99
2019/03/26 03:36 EDT    2.92   2.89    5   22   11  41.4  47.3 1019.9  0.1  1.001 -99.9 -99.99 -9.99
2019/03/26 03:42 EDT    2.92   2.88    8   15   12  41.2  47.3 1019.9  0.1  1.001 -99.9 -99.99 -9.99
2019/03/26 03:48 EDT    2.90   2.88    9   23   14  41.0  47.3 1020.1  0.1  1.001 -99.9 -99.99 -9.99
2019/03/26 03:54 EDT    2.88   2.86    6   11   14  40.8  47.3 1020.1  0.1  1.001 -99.9 -99.99 -9.99
2019/03/26 04:00 EDT    2.86   2.85   10   11   15  40.6  47.3 1020.2  0.1  1.001 -99.9 -99.99 -9.99
2019/03/26 04:06 EDT    2.84   2.83    9    6   17  40.3  47.3 1020.4  0.1  1.001 -99.9 -99.99 -9.99
2019/03/26 04:12 EDT    2.81   2.80   11   10   16  39.9  47.3 1020.4  0.1  1.001 -99.9 -99.99 -9.99
2019/03/26 04:18 EDT    2.77   2.77    8   19   15  39.7  47.3 1020.5  0.1  1.001 -99.9 -99.99 -9.99
2019/03/26 04:24 EDT    2.74   2.72    7   23   12  39.6  47.3 1020.6  0.1  1.001 -99.9 -99.99 -9.99
2019/03/26 04:30 EDT    2.70   2.68   10   12   14  39.2  47.3 1020.6  0.1  1.001 -99.9 -99.99 -9.99
2019/03/26 04:36 EDT    2.65   2.64    8   17   12  39.0  47.3 1020.6  0.1  1.001 -99.9 -99.99 -9.99
2019/03/26 04:42 EDT    2.60   2.59    8   25   13  38.7  47.3 1020.8  0.1  1.001 -99.9 -99.99 -9.99
2019/03/26 04:48 EDT    2.55   2.54   11   21   15  38.5  47.5 1020.9  0.1  1.001 -99.9 -99.99 -9.99
2019/03/26 04:54 EDT    2.50   2.50    7   15   16  38.1  47.3 1021.0  0.1  1.001 -99.9 -99.99 -9.99
2019/03/26 05:00 EDT    2.44   2.48    5   19   12  37.9  47.3 1021.1  0.1  1.001 -99.9 -99.99 -9.99
2019/03/26 05:06 EDT    2.39   2.41    9   32   13  37.8  47.3 1021.2  0.1  1.001 -99.9 -99.99 -9.99
2019/03/26 05:12 EDT    2.32   2.34    8   23   15  37.6  47.3 1021.2  0.1  1.001 -99.9 -99.99 -9.99
2019/03/26 05:18 EDT    2.26   2.28    8   34   15  37.4  47.5 1021.2  0.1  1.001 -99.9 -99.99 -9.99
2019/03/26 05:24 EDT    2.20   2.18    9   32   13  37.2  47.5 1021.3  0.1  1.001 -99.9 -99.99 -9.99
2019/03/26 05:30 EDT    2.13   2.12    8   22   12  37.0  47.5 1021.4  0.1  1.001 -99.9 -99.99 -9.99
2019/03/26 05:36 EDT    2.06   2.05    8   20   12  36.9  47.7 1021.6  0.1  1.001 -99.9 -99.99 -9.99
2019/03/26 05:42 EDT    1.99   1.93    7   19   11  36.7  47.7 1021.7  0.1  1.001 -99.9 -99.99 -9.99
2019/03/26 05:48 EDT    1.92   1.89   10   29   14  36.5  47.7 1022.0  0.1  1.001 -99.9 -99.99 -9.99
2019/03/26 05:54 EDT    1.85   1.83    6   37   13  36.3  47.7 1022.1  0.1  1.001 -99.9 -99.99 -9.99
2019/03/26 06:00 EDT    1.78   1.76    7   20   12  36.1  47.5 1022.1  0.1  1.001 -99.9 -99.99 -9.99
2019/03/26 06:06 EDT    1.71   1.69    6   22   13  36.0  47.5 1022.2  0.1  1.001 -99.9 -99.99 -9.99
2019/03/26 06:12 EDT    1.64   1.61    7   32   10  35.8  47.7 1022.4  0.1  1.001 -99.9 -99.99 -9.99
2019/03/26 06:18 EDT    1.57   1.54    5   27    7  35.8  47.7 1022.5  0.1  1.001 -99.9 -99.99 -9.99
2019/03/26 06:24 EDT    1.50   1.49   11   22   17  35.8  47.7 1022.4  0.1  1.001 -99.9 -99.99 -9.99
2019/03/26 06:30 EDT    1.42   1.42    6   17   14  35.4  47.7 1022.5  0.1  1.001 -99.9 -99.99 -9.99
2019/03/26 06:36 EDT    1.35   1.34    6   35   12  35.2  47.5 1022.6  0.1  1.001 -99.9 -99.99 -9.99
2019/03/26 06:42 EDT    1.28   1.28    4   36   10  35.1  47.5 1022.6  0.1  1.001 -99.9 -99.99 -9.99
2019/03/26 06:48 EDT    1.21   1.16    6   34   11  35.1  47.7 1022.7  0.1  1.001 -99.9 -99.99 -9.99
2019/03/26 06:54 EDT    1.15   1.11    4   26    8  34.7  47.7 1022.9  0.1  1.001 -99.9 -99.99 -9.99
2019/03/26 07:00 EDT    1.08   1.03    6   20    8  34.5  47.7 1023.0  0.1  1.001 -99.9 -99.99 -9.99
2019/03/26 07:06 EDT    1.01   0.95    4   41    7  34.3  47.7 1023.1  0.1  1.001 -99.9 -99.99 -9.99
2019/03/26 07:12 EDT    0.95   0.92    7   20   11  34.5  47.3 1023.2  0.1  1.001 -99.9 -99.99 -9.99
2019/03/26 07:18 EDT    0.89   0.84    5   37    9  34.5  47.7 1023.4  0.1  1.001 -99.9 -99.99 -9.99
2019/03/26 07:24 EDT    0.83   0.78    5   37    9  34.7  47.5 1023.4  0.1  1.001 -99.9 -99.99 -9.99
2019/03/26 07:30 EDT    0.77   0.72    5   29   11  34.7  47.7 1023.5  0.1  1.001 -99.9 -99.99 -9.99
2019/03/26 07:36 EDT    0.71   0.66    4   24    8  34.7  47.5 1023.6  0.1  1.001 -99.9 -99.99 -9.99
2019/03/26 07:42 EDT    0.66   0.59    7   25   11  34.7  47.7 1023.7  0.1  1.001 -99.9 -99.99 -9.99
2019/03/26 07:48 EDT    0.61   0.54    7   39   11  34.9  47.5 1023.9  0.1  1.001 -99.9 -99.99 -9.99
2019/03/26 07:54 EDT    0.56   0.48    6   20   10  34.7  47.7 1023.9  0.1  1.001 -99.9 -99.99 -9.99
2019/03/26 08:00 EDT    0.51   0.44    5   29   12  35.1  47.7 1024.2  0.1  1.001 -99.9 -99.99 -9.99
2019/03/26 08:06 EDT    0.47   0.40   10   42   12  34.9  47.7 1024.3  0.1  1.001 -99.9 -99.99 -9.99
2019/03/26 08:12 EDT    0.43   0.40    8   43   14  35.1  47.5 1024.4  0.1  1.001 -99.9 -99.99 -9.99
2019/03/26 08:18 EDT    0.39   0.33    7   27   11  35.1  47.5 1024.4  0.1  1.001 -99.9 -99.99 -9.99
2019/03/26 08:24 EDT    0.35   0.29    9   47   12  35.1  47.5 1024.6  0.1  1.001 -99.9 -99.99 -9.99
2019/03/26 08:30 EDT    0.32   0.25    8   36   13  35.4  47.3 1024.6  0.1  1.001 -99.9 -99.99 -9.99
2019/03/26 08:36 EDT    0.29   0.20    6   30   10  35.4  47.5 1024.8  0.1  1.001 -99.9 -99.99 -9.99
2019/03/26 08:42 EDT    0.26   0.15   10   56   14  35.4  47.3 1024.9  0.2  1.001 -99.9 -99.99 -9.99
2019/03/26 08:48 EDT    0.24   0.12   10   17   13  35.4  47.1 1024.8  0.2  1.001 -99.9 -99.99 -9.99
2019/03/26 08:54 EDT    0.22   0.10   10    9   15  35.4  47.1 1024.9  0.2  1.001 -99.9 -99.99 -9.99
2019/03/26 09:00 EDT    0.20   0.06    8   40   11  35.6  47.3 1025.0  0.2  1.001 -99.9 -99.99 -9.99
2019/03/26 09:06 EDT    0.19   0.03    7   18   13  36.0  47.3 1025.0  0.2  1.001 -99.9 -99.99 -9.99
2019/03/26 09:12 EDT    0.18   0.01    8   42   12  36.1  47.3 1025.0  0.2  1.001 -99.9 -99.99 -9.99
2019/03/26 09:18 EDT    0.17  -0.02    8   34   12  36.3  47.3 1025.2  0.2  1.001 -99.9 -99.99 -9.99
2019/03/26 09:24 EDT    0.16  -0.06   11    7   15  36.1  47.3 1025.2  0.2  1.001 -99.9 -99.99 -9.99
2019/03/26 09:30 EDT    0.15  -0.08    9   19   15  36.1  47.1 1025.4  0.2  1.001 -99.9 -99.99 -9.99
2019/03/26 09:36 EDT    0.15  -0.10    8    8   14  36.9  47.1 1025.5  0.2  1.001 -99.9 -99.99 -9.99
2019/03/26 09:42 EDT    0.15  -0.21   11   14   15  36.5  47.1 1025.6  0.2  1.001 -99.9 -99.99 -9.99
2019/03/26 09:48 EDT    0.15  -0.23    8   37   15  36.9  47.1 1025.7  0.2  1.001 -99.9 -99.99 -9.99
2019/03/26 09:54 EDT    0.15  -0.23    9   55   16  37.2  47.1 1025.8  0.2  1.001 -99.9 -99.99 -9.99
2019/03/26 10:00 EDT    0.16  -0.24    8   26   12  37.6  46.9 1025.8  0.2  1.001 -99.9 -99.99 -9.99
2019/03/26 10:06 EDT    0.17  -0.24   11   46   16  37.4  47.1 1025.9  0.2  1.001 -99.9 -99.99 -9.99
2019/03/26 10:12 EDT    0.18  -0.24   11   24   15  37.6  46.9 1026.0  0.2  1.001 -99.9 -99.99 -9.99
2019/03/26 10:18 EDT    0.19  -0.22    7   46   20  37.8  46.9 1026.1  0.2  1.001 -99.9 -99.99 -9.99
2019/03/26 10:24 EDT    0.20  -0.21    9   37   12  38.3  46.9 1026.1  0.2  1.001 -99.9 -99.99 -9.99
2019/03/26 10:30 EDT    0.22  -0.19    9   26   16  38.5  46.8 1026.2  0.2  1.001 -99.9 -99.99 -9.99
2019/03/26 10:36 EDT    0.24  -0.14    8   21   14  38.3  46.9 1026.2  0.2  1.001 -99.9 -99.99 -9.99
2019/03/26 10:42 EDT    0.26  -0.12   10   39   13  38.3  46.8 1026.3  0.2  1.001 -99.9 -99.99 -9.99
2019/03/26 10:48 EDT    0.28  -0.09   10   19   15  38.8  46.8 1026.3  0.2  1.001 -99.9 -99.99 -9.99
2019/03/26 10:54 EDT    0.31  -0.06    8   45   11  39.4  46.8 1026.4  0.3  1.001 -99.9 -99.99 -9.99
2019/03/26 11:00 EDT    0.34  -0.00   11   69   14  38.5  46.6 1026.5  0.3  1.001 -99.9 -99.99 -9.99
2019/03/26 11:06 EDT    0.38   0.03   10   50   14  39.2  46.6 1026.5  0.3  1.001 -99.9 -99.99 -9.99
2019/03/26 11:12 EDT    0.42   0.08    6    7   11  39.4  46.6 1026.5  0.3  1.001 -99.9 -99.99 -9.99
2019/03/26 11:18 EDT    0.46   0.12    7   20   11  39.0  46.6 1026.5  0.3  1.001 -99.9 -99.99 -9.99
2019/03/26 11:24 EDT    0.50   0.16    5   22   11  39.7  46.6 1026.6  0.3  1.001 -99.9 -99.99 -9.99
2019/03/26 11:30 EDT    0.55   0.18   12   15   16  39.4  46.6 1026.5  0.3  1.001 -99.9 -99.99 -9.99
2019/03/26 11:36 EDT    0.60   0.23    5   23   14  39.9  46.8 1026.6  0.2  1.001 -99.9 -99.99 -9.99
2019/03/26 11:42 EDT    0.66   0.27    4   58   12  40.3  46.8 1026.6  0.2  1.001 -99.9 -99.99 -9.99
2019/03/26 11:48 EDT    0.72   0.32    9  357   16  40.3  46.8 1026.6  0.2  1.001 -99.9 -99.99 -9.99
2019/03/26 11:54 EDT    0.78   0.36    5   69   12  39.9  46.8 1026.6  0.2  1.001 -99.9 -99.99 -9.99
2019/03/26 12:00 EDT    0.85   0.43    7   18   11  40.3  46.8 1026.6  0.2  1.001 -99.9 -99.99 -9.99
2019/03/26 12:06 EDT    0.92   0.48    8   56   12  41.0  46.8 1026.6  0.2  1.001 -99.9 -99.99 -9.99
2019/03/26 12:12 EDT    0.99   0.58    9   16   13  40.6  46.8 1026.5  0.2  1.001 -99.9 -99.99 -9.99
2019/03/26 12:18 EDT    1.07   0.66    5   48    9  41.4  46.8 1026.5  0.2  1.001 -99.9 -99.99 -9.99
2019/03/26 12:24 EDT    1.15   0.78    4   44    9  41.0  46.9 1026.5  0.2  1.001 -99.9 -99.99 -9.99
2019/03/26 12:30 EDT    1.23   0.82    4   30   15  41.0  46.8 1026.4  0.2  1.001 -99.9 -99.99 -9.99
2019/03/26 12:36 EDT    1.31   0.95    7   83   13  41.7  47.1 1026.5  0.2  1.001 -99.9 -99.99 -9.99
2019/03/26 12:42 EDT    1.39   1.03    8   25   16  41.7  46.8 1026.4  0.2  1.001 -99.9 -99.99 -9.99
2019/03/26 12:48 EDT    1.47   1.10    2   41   12  41.9  46.8 1026.4  0.2  1.001 -99.9 -99.99 -9.99
2019/03/26 12:54 EDT    1.56   1.22    8   35   15  42.3  47.1 1026.3  0.2  1.001 -99.9 -99.99 -9.99
2019/03/26 13:00 EDT    1.64   1.32    6   87   12  42.3  47.1 1026.3  0.2  1.001 -99.9 -99.99 -9.99
2019/03/26 13:06 EDT    1.72   1.41    5   50   10  42.8  46.9 1026.2  0.2  1.001 -99.9 -99.99 -9.99
2019/03/26 13:12 EDT    1.81   1.47   10    9   13  42.3  46.9 1026.3  0.2  1.001 -99.9 -99.99 -9.99
2019/03/26 13:18 EDT    1.89   1.55    5   55   12  42.4  46.9 1026.2  0.2  1.001 -99.9 -99.99 -9.99
2019/03/26 13:24 EDT    1.97   1.65    9   16   13  43.3  47.1 1026.1  0.2  1.001 -99.9 -99.99 -9.99
2019/03/26 13:30 EDT    2.04   1.72    7  359   15  43.0  46.9 1026.1  0.2  1.001 -99.9 -99.99 -9.99
2019/03/26 13:36 EDT    2.12   1.81    7   50   14  43.5  46.9 1026.1  0.2  1.001 -99.9 -99.99 -9.99
2019/03/26 13:42 EDT    2.19   1.90    6   21   11  43.9  47.1 1026.1  0.2  1.001 -99.9 -99.99 -9.99
2019/03/26 13:48 EDT    2.26   1.98    9   65   13  43.9  47.3 1026.1  0.2  1.001 -99.9 -99.99 -9.99
2019/03/26 13:54 EDT    2.33   2.06    6  350   13  43.9  47.3 1025.9  0.2  1.001 -99.9 -99.99 -9.99
2019/03/26 14:00 EDT    2.39   2.15    5   33   13  44.1  47.1 1025.9  0.2  1.001 -99.9 -99.99 -9.99
2019/03/26 14:06 EDT    2.45   2.22    9   30   14  44.1  47.1 1025.8  0.2  1.001 -99.9 -99.99 -9.99
2019/03/26 14:12 EDT    2.51   2.29    8    1   14  43.5  47.1 1025.8  0.2  1.001 -99.9 -99.99 -9.99
2019/03/26 14:18 EDT    2.56   2.35    9  356   13  44.2  47.1 1025.7  0.2  1.001 -99.9 -99.99 -9.99
2019/03/26 14:24 EDT    2.61   2.55    8   53   14  44.8  47.1 1025.7  0.2  1.001 -99.9 -99.99 -9.99
2019/03/26 14:30 EDT    2.66   2.50    3   17   14  45.0  47.1 1025.6  0.2  1.001 -99.9 -99.99 -9.99
2019/03/26 14:36 EDT    2.70   2.51   12   12   16  45.1  47.1 1025.6  0.2  1.001 -99.9 -99.99 -9.99
2019/03/26 14:42 EDT    2.74   2.60    9  340   14  45.0  47.1 1025.5  0.3  1.001 -99.9 -99.99 -9.99
2019/03/26 14:48 EDT    2.78   2.49    9   57   12  44.6  47.1 1025.6  0.3  1.001 -99.9 -99.99 -9.99
2019/03/26 14:54 EDT    2.81   2.67    6    4   11  45.1  47.1 1025.4  0.3  1.001 -99.9 -99.99 -9.99
2019/03/26 15:00 EDT    2.84   2.73    9   59   15  44.6  47.3 1025.5  0.3  1.001 -99.9 -99.99 -9.99
2019/03/26 15:06 EDT    2.87   2.82    9   41   15  45.3  47.3 1025.4  0.3  1.001 -99.9 -99.99 -9.99
2019/03/26 15:12 EDT    2.89   2.84    9   24   14  45.5  47.3 1025.4  0.3  1.001 -99.9 -99.99 -9.99
2019/03/26 15:18 EDT    2.91   2.85    9   37   14  45.7  47.1 1025.4  0.3  1.001 -99.9 -99.99 -9.99
2019/03/26 15:24 EDT    2.93   2.84    6   27   10  45.5  47.1 1025.4  0.3  1.001 -99.9 -99.99 -9.99
2019/03/26 15:30 EDT    2.94   2.91    9    1   14  45.0  47.3 1025.4  0.3  1.001 -99.9 -99.99 -9.99
2019/03/26 15:36 EDT    2.95   2.88    5   52   11  45.9  47.3 1025.4  0.3  1.001 -99.9 -99.99 -9.99
2019/03/26 15:42 EDT    2.96   2.95   11   72   17  45.1  47.5 1025.5  0.3  1.001 -99.9 -99.99 -9.99
2019/03/26 15:48 EDT    2.96   2.96    7   43   15  45.9  47.3 1025.4  0.3  1.001 -99.9 -99.99 -9.99
2019/03/26 15:54 EDT    2.96   2.96    7   44   14  45.7  47.5 1025.3  0.3  1.001 -99.9 -99.99 -9.99
2019/03/26 16:00 EDT    2.96   2.98    8  358   12  46.2  47.5 1025.3  0.3  1.001 -99.9 -99.99 -9.99
2019/03/26 16:06 EDT    2.95   2.99    7   42   13  46.0  47.5 1025.3  0.3  1.001 -99.9 -99.99 -9.99
2019/03/26 16:12 EDT    2.94   2.96    7   30   11  46.0  47.5 1025.3  0.3  1.001 -99.9 -99.99 -9.99
2019/03/26 16:18 EDT    2.93   2.93    6  332   11  46.4  47.5 1025.3  0.3  1.001 -99.9 -99.99 -9.99
2019/03/26 16:24 EDT    2.91   2.92    7    3   12  47.1  47.5 1025.3  0.3  1.001 -99.9 -99.99 -9.99
2019/03/26 16:30 EDT    2.89   2.95    6   16   18  46.9  47.5 1025.3  0.3  1.001 -99.9 -99.99 -9.99
2019/03/26 16:36 EDT    2.86   2.94    6   34   10  46.6  47.3 1025.4  0.3  1.001 -99.9 -99.99 -9.99
2019/03/26 16:42 EDT    2.83   2.92    6  338   10  46.9  47.5 1025.3  0.3  1.001 -99.9 -99.99 -9.99
2019/03/26 16:48 EDT    2.80   2.92    7    6   10  46.9  47.5 1025.3  0.3  1.001 -99.9 -99.99 -9.99
2019/03/26 16:54 EDT    2.76   2.87    8   37   14  47.1  47.5 1025.4  0.3  1.001 -99.9 -99.99 -9.99
2019/03/26 17:00 EDT    2.72   2.84    7   20   11  47.1  47.5 1025.4  0.3  1.001 -99.9 -99.99 -9.99
2019/03/26 17:06 EDT    2.68   2.80    4   26   11  47.3  47.7 1025.4  0.3  1.001 -99.9 -99.99 -9.99
2019/03/26 17:12 EDT    2.63   2.77    9    4   11  47.1  47.7 1025.4  0.3  1.001 -99.9 -99.99 -9.99
2019/03/26 17:18 EDT    2.58   2.73    9  360   12  47.3  47.8 1025.4  0.3  1.001 -99.9 -99.99 -9.99
2019/03/26 17:24 EDT    2.53   2.69    5   41   13  47.5  47.7 1025.4  0.3  1.001 -99.9 -99.99 -9.99
2019/03/26 17:30 EDT    2.48   2.64    6   47   11  47.5  47.7 1025.5  0.3  1.001 -99.9 -99.99 -9.99
2019/03/26 17:36 EDT    2.42   2.59    5   15    9  47.5  47.5 1025.5  0.3  1.001 -99.9 -99.99 -9.99
2019/03/26 17:42 EDT    2.36   2.56    5   41    8  47.5  47.7 1025.6  0.3  1.001 -99.9 -99.99 -9.99
2019/03/26 17:48 EDT    2.30   2.51    8   38   11  47.7  47.7 1025.6  0.3  1.001 -99.9 -99.99 -9.99
2019/03/26 17:54 EDT    2.24   2.45    9  344   12  47.8  47.7 1025.7  0.3  1.001 -99.9 -99.99 -9.99
2019/03/26 18:00 EDT    2.17   2.40    9  354   14  47.3  47.7 1025.7  0.3  1.001 -99.9 -99.99 -9.99
2019/03/26 18:06 EDT    2.11   2.35    4    5   12  47.8  47.7 1025.8  0.3  1.001 -99.9 -99.99 -9.99
2019/03/26 18:12 EDT    2.04   2.28    5   29    8  47.7  47.7 1025.8  0.3  1.001 -99.9 -99.99 -9.99
2019/03/26 18:18 EDT    1.97   2.22    7   26   11  47.7  47.7 1025.8  0.3  1.001 -99.9 -99.99 -9.99
2019/03/26 18:24 EDT    1.90   2.18    5   25   10  47.8  47.5 1025.9  0.3  1.001 -99.9 -99.99 -9.99
2019/03/26 18:30 EDT    1.83   2.12    5   17    9  47.7  47.5 1025.9  0.3  1.001 -99.9 -99.99 -9.99
2019/03/26 18:36 EDT    1.75   2.05    6  359    7  47.7  47.5 1026.0  0.3  1.001 -99.9 -99.99 -9.99
2019/03/26 18:42 EDT    1.68   1.99    6  353    9  47.5  47.5 1026.1  0.3  1.001 -99.9 -99.99 -9.99
2019/03/26 18:48 EDT    1.61   1.94    5  346    8  47.5  47.7 1026.1  0.3  1.001 -99.9 -99.99 -9.99
2019/03/26 18:54 EDT    1.54   1.87    5  351    8  47.3  47.7 1026.2  0.3  1.001 -99.9 -99.99 -9.99
2019/03/26 19:00 EDT    1.46   1.80    8    2   11  46.9  47.5 1026.3  0.3  1.001 -99.9 -99.99 -9.99
2019/03/26 19:06 EDT    1.39   1.76    8  359   12  46.8  47.5 1026.3  0.3  1.001 -99.9 -99.99 -9.99
2019/03/26 19:12 EDT    1.32   1.70    6    3    9  46.6  47.5 1026.4  0.3  1.001 -99.9 -99.99 -9.99
2019/03/26 19:18 EDT    1.25   1.64    8  345   12  46.4  47.7 1026.5  0.3  1.001 -99.9 -99.99 -9.99
2019/03/26 19:24 EDT    1.17   1.59    7  356   12  46.2  47.5 1026.6  0.3  1.001 -99.9 -99.99 -9.99
2019/03/26 19:30 EDT    1.10   1.54    5  350    8  45.9  47.7 1026.7  0.3  1.001 -99.9 -99.99 -9.99
2019/03/26 19:36 EDT    1.04   1.49    4  358    8  45.7  47.5 1026.8  0.3  1.001 -99.9 -99.99 -9.99
2019/03/26 19:42 EDT    0.97   1.43    4  348    7  45.5  47.7 1026.9  0.3  1.001 -99.9 -99.99 -9.99
2019/03/26 19:48 EDT    0.90   1.38    4  345    5  45.3  47.5 1027.0  0.3  1.001 -99.9 -99.99 -9.99
2019/03/26 19:54 EDT    0.84   1.33    3  346    5  45.1  47.3 1027.1  0.3  1.001 -99.9 -99.99 -9.99
2019/03/26 20:00 EDT    0.77   1.27    4  354    6  45.0  47.5 1027.2  0.3  1.001 -99.9 -99.99 -9.99
2019/03/26 20:06 EDT    0.71   1.22    3  348    4  44.8  47.5 1027.2  0.3  1.001 -99.9 -99.99 -9.99
2019/03/26 20:12 EDT    0.65   1.18    3  350    4  44.6  47.7 1027.3  0.3  1.001 -99.9 -99.99 -9.99
2019/03/26 20:18 EDT    0.60 -99.99 -999 -999 -999 -99.9 -99.9 -999.9 -9.9 -9.999 -99.9 -99.99 -9.99
2019/03/26 20:24 EDT    0.54 -99.99 -999 -999 -999 -99.9 -99.9 -999.9 -9.9 -9.999 -99.9 -99.99 -9.99
2019/03/26 20:30 EDT    0.49 -99.99 -999 -999 -999 -99.9 -99.9 -999.9 -9.9 -9.999 -99.9 -99.99 -9.99
2019/03/26 20:36 EDT    0.44 -99.99 -999 -999 -999 -99.9 -99.9 -999.9 -9.9 -9.999 -99.9 -99.99 -9.99
2019/03/26 20:42 EDT    0.39 -99.99 -999 -999 -999 -99.9 -99.9 -999.9 -9.9 -9.999 -99.9 -99.99 -9.99
2019/03/26 20:48 EDT    0.35 -99.99 -999 -999 -999 -99.9 -99.9 -999.9 -9.9 -9.999 -99.9 -99.99 -9.99
2019/03/26 20:54 EDT    0.31 -99.99 -999 -999 -999 -99.9 -99.9 -999.9 -9.9 -9.999 -99.9 -99.99 -9.99
2019/03/26 21:00 EDT    0.27 -99.99 -999 -999 -999 -99.9 -99.9 -999.9 -9.9 -9.999 -99.9 -99.99 -9.99
2019/03/26 21:06 EDT    0.24 -99.99 -999 -999 -999 -99.9 -99.9 -999.9 -9.9 -9.999 -99.9 -99.99 -9.99
2019/03/26 21:12 EDT    0.20 -99.99 -999 -999 -999 -99.9 -99.9 -999.9 -9.9 -9.999 -99.9 -99.99 -9.99
2019/03/26 21:18 EDT    0.17 -99.99 -999 -999 -999 -99.9 -99.9 -999.9 -9.9 -9.999 -99.9 -99.99 -9.99
2019/03/26 21:24 EDT    0.15 -99.99 -999 -999 -999 -99.9 -99.9 -999.9 -9.9 -9.999 -99.9 -99.99 -9.99
2019/03/26 21:30 EDT    0.12 -99.99 -999 -999 -999 -99.9 -99.9 -999.9 -9.9 -9.999 -99.9 -99.99 -9.99
2019/03/26 21:36 EDT    0.10 -99.99 -999 -999 -999 -99.9 -99.9 -999.9 -9.9 -9.999 -99.9 -99.99 -9.99
2019/03/26 21:42 EDT    0.08 -99.99 -999 -999 -999 -99.9 -99.9 -999.9 -9.9 -9.999 -99.9 -99.99 -9.99
2019/03/26 21:48 EDT    0.06 -99.99 -999 -999 -999 -99.9 -99.9 -999.9 -9.9 -9.999 -99.9 -99.99 -9.99
2019/03/26 21:54 EDT    0.05 -99.99 -999 -999 -999 -99.9 -99.9 -999.9 -9.9 -9.999 -99.9 -99.99 -9.99
2019/03/26 22:00 EDT    0.04 -99.99 -999 -999 -999 -99.9 -99.9 -999.9 -9.9 -9.999 -99.9 -99.99 -9.99
2019/03/26 22:06 EDT    0.03 -99.99 -999 -999 -999 -99.9 -99.9 -999.9 -9.9 -9.999 -99.9 -99.99 -9.99
2019/03/26 22:12 EDT    0.02 -99.99 -999 -999 -999 -99.9 -99.9 -999.9 -9.9 -9.999 -99.9 -99.99 -9.99
2019/03/26 22:18 EDT    0.01 -99.99 -999 -999 -999 -99.9 -99.9 -999.9 -9.9 -9.999 -99.9 -99.99 -9.99
2019/03/26 22:24 EDT    0.01 -99.99 -999 -999 -999 -99.9 -99.9 -999.9 -9.9 -9.999 -99.9 -99.99 -9.99
2019/03/26 22:30 EDT    0.01 -99.99 -999 -999 -999 -99.9 -99.9 -999.9 -9.9 -9.999 -99.9 -99.99 -9.99
2019/03/26 22:36 EDT    0.01 -99.99 -999 -999 -999 -99.9 -99.9 -999.9 -9.9 -9.999 -99.9 -99.99 -9.99
2019/03/26 22:42 EDT    0.02 -99.99 -999 -999 -999 -99.9 -99.9 -999.9 -9.9 -9.999 -99.9 -99.99 -9.99
2019/03/26 22:48 EDT    0.02 -99.99 -999 -999 -999 -99.9 -99.9 -999.9 -9.9 -9.999 -99.9 -99.99 -9.99
2019/03/26 22:54 EDT    0.03 -99.99 -999 -999 -999 -99.9 -99.9 -999.9 -9.9 -9.999 -99.9 -99.99 -9.99
2019/03/26 23:00 EDT    0.04 -99.99 -999 -999 -999 -99.9 -99.9 -999.9 -9.9 -9.999 -99.9 -99.99 -9.99
2019/03/26 23:06 EDT    0.06 -99.99 -999 -999 -999 -99.9 -99.9 -999.9 -9.9 -9.999 -99.9 -99.99 -9.99
2019/03/26 23:12 EDT    0.08 -99.99 -999 -999 -999 -99.9 -99.9 -999.9 -9.9 -9.999 -99.9 -99.99 -9.99
2019/03/26 23:18 EDT    0.10 -99.99 -999 -999 -999 -99.9 -99.9 -999.9 -9.9 -9.999 -99.9 -99.99 -9.99
2019/03/26 23:24 EDT    0.13 -99.99 -999 -999 -999 -99.9 -99.9 -999.9 -9.9 -9.999 -99.9 -99.99 -9.99
2019/03/26 23:30 EDT    0.16 -99.99 -999 -999 -999 -99.9 -99.9 -999.9 -9.9 -9.999 -99.9 -99.99 -9.99
2019/03/26 23:36 EDT    0.19 -99.99 -999 -999 -999 -99.9 -99.9 -999.9 -9.9 -9.999 -99.9 -99.99 -9.99
2019/03/26 23:42 EDT    0.23 -99.99 -999 -999 -999 -99.9 -99.9 -999.9 -9.9 -9.999 -99.9 -99.99 -9.99
2019/03/26 23:48 EDT    0.27 -99.99 -999 -999 -999 -99.9 -99.9 -999.9 -9.9 -9.999 -99.9 -99.99 -9.99
2019/03/26 23:54 EDT    0.32 -99.99 -999 -999 -999 -99.9 -99.9 -999.9 -9.9 -9.999 -99.9 -99.99 -9.99
2019/03/27 00:00 EDT    0.37 -99.99 -999 -999 -999 -99.9 -99.9 -999.9 -9.9 -9.999 -99.9 -99.99 -9.99
2019/03/27 00:06 EDT    0.42 -99.99 -999 -999 -999 -99.9 -99.9 -999.9 -9.9 -9.999 -99.9 -99.99 -9.99
2019/03/27 00:12 EDT    0.48 -99.99 -999 -999 -999 -99.9 -99.9 -999.9 -9.9 -9.999 -99.9 -99.99 -9.99
2019/03/27 00:18 EDT    0.54 -99.99 -999 -999 -999 -99.9 -99.9 -999.9 -9.9 -9.999 -99.9 -99.99 -9.99
2019/03/27 00:24 EDT    0.61 -99.99 -999 -999 -999 -99.9 -99.9 -999.9 -9.9 -9.999 -99.9 -99.99 -9.99
2019/03/27 00:30 EDT    0.68 -99.99 -999 -999 -999 -99.9 -99.9 -999.9 -9.9 -9.999 -99.9 -99.99 -9.99
2019/03/27 00:36 EDT    0.75 -99.99 -999 -999 -999 -99.9 -99.9 -999.9 -9.9 -9.999 -99.9 -99.99 -9.99
2019/03/27 00:42 EDT    0.82 -99.99 -999 -999 -999 -99.9 -99.9 -999.9 -9.9 -9.999 -99.9 -99.99 -9.99
2019/03/27 00:48 EDT    0.90 -99.99 -999 -999 -999 -99.9 -99.9 -999.9 -9.9 -9.999 -99.9 -99.99 -9.99
2019/03/27 00:54 EDT    0.98 -99.99 -999 -999 -999 -99.9 -99.9 -999.9 -9.9 -9.999 -99.9 -99.99 -9.99
2019/03/27 01:00 EDT    1.06 -99.99 -999 -999 -999 -99.9 -99.9 -999.9 -9.9 -9.999 -99.9 -99.99 -9.99
2019/03/27 01:06 EDT    1.15 -99.99 -999 -999 -999 -99.9 -99.9 -999.9 -9.9 -9.999 -99.9 -99.99 -9.99
2019/03/27 01:12 EDT    1.23 -99.99 -999 -999 -999 -99.9 -99.9 -999.9 -9.9 -9.999 -99.9 -99.99 -9.99
2019/03/27 01:18 EDT    1.32 -99.99 -999 -999 -999 -99.9 -99.9 -999.9 -9.9 -9.999 -99.9 -99.99 -9.99
2019/03/27 01:24 EDT    1.40 -99.99 -999 -999 -999 -99.9 -99.9 -999.9 -9.9 -9.999 -99.9 -99.99 -9.99
2019/03/27 01:30 EDT    1.49 -99.99 -999 -999 -999 -99.9 -99.9 -999.9 -9.9 -9.999 -99.9 -99.99 -9.99
2019/03/27 01:36 EDT    1.57 -99.99 -999 -999 -999 -99.9 -99.9 -999.9 -9.9 -9.999 -99.9 -99.99 -9.99
2019/03/27 01:42 EDT    1.65 -99.99 -999 -999 -999 -99.9 -99.9 -999.9 -9.9 -9.999 -99.9 -99.99 -9.99
2019/03/27 01:48 EDT    1.74 -99.99 -999 -999 -999 -99.9 -99.9 -999.9 -9.9 -9.999 -99.9 -99.99 -9.99
2019/03/27 01:54 EDT    1.81 -99.99 -999 -999 -999 -99.9 -99.9 -999.9 -9.9 -9.999 -99.9 -99.99 -9.99
2019/03/27 02:00 EDT    1.89 -99.99 -999 -999 -999 -99.9 -99.9 -999.9 -9.9 -9.999 -99.9 -99.99 -9.99
2019/03/27 02:06 EDT    1.97 -99.99 -999 -999 -999 -99.9 -99.9 -999.9 -9.9 -9.999 -99.9 -99.99 -9.99
2019/03/27 02:12 EDT    2.04 -99.99 -999 -999 -999 -99.9 -99.9 -999.9 -9.9 -9.999 -99.9 -99.99 -9.99
2019/03/27 02:18 EDT    2.11 -99.99 -999 -999 -999 -99.9 -99.9 -999.9 -9.9 -9.999 -99.9 -99.99 -9.99
2019/03/27 02:24 EDT    2.17 -99.99 -999 -999 -999 -99.9 -99.9 -999.9 -9.9 -9.999 -99.9 -99.99 -9.99
2019/03/27 02:30 EDT    2.24 -99.99 -999 -999 -999 -99.9 -99.9 -999.9 -9.9 -9.999 -99.9 -99.99 -9.99

Revised: 08/08/2018
NOAA / National Ocean Service
Web site owner: Center for Operational Oceanographic Products and Services